CheckWX is a tool to help pilots better visualize weather data.  It is not intended as a substitute for an official pre-flight weather briefing.

05:55:36 UTC

KIBM METAR
Kimball Municipal / Robert E Arraj Field Airport
Kimball, Nebraska, USA
Current

21 mins ago

KIBM 260535Z AUTO 26007KT 10SM CLR M17/M20 A3041 RMK AO2 T11751201
Observed
Feb-26 @ 05:35 UTC
Wind
  • 260° at 7 KTS
Visibility
10 SM
Flight Rules
VFR
Cloud Levels
  • Clear skies
Temperature
-18°C / -0°F
Dewpoint
-20°C / -4°F
Humidity
84%
Altimeter
30.41" Hg
Pressure
1029.82 hPa
Previous

41 mins ago

KIBM 260515Z AUTO 26006KT 10SM CLR M16/M19 A3042 RMK AO2 T11631191
Observed
Feb-26 @ 05:15 UTC
Wind
  • 260° at 6 KTS
Visibility
10 SM
Flight Rules
VFR
Cloud Levels
  • Clear skies
Temperature
-16°C / 3°F
Dewpoint
-19°C / -2°F
Humidity
78%
Altimeter
30.42" Hg
Pressure
1030.12 hPa
Previous

1 hour ago

KIBM 260455Z AUTO 28009KT 10SM CLR M16/M19 A3042 RMK AO2 T11641190
Observed
Feb-26 @ 04:55 UTC
Wind
  • 280° at 9 KTS
Visibility
10 SM
Flight Rules
VFR
Cloud Levels
  • Clear skies
Temperature
-16°C / 3°F
Dewpoint
-19°C / -2°F
Humidity
78%
Altimeter
30.42" Hg
Pressure
1030.12 hPa